Terminal Aerodrome Forecast
Issued by NWS Jackson, MS

Home | Current Version | Previous Version | Text Only | Print | Product List | Glossary On
Versions: 1 2 3 4 5 6 7 8 9 10 11 12 13 14 15 16 17
091
FTUS44 KMEG 242340
TAFTUP
TAF
KTUP 242340Z 2500/2524 16012G22KT P6SM VCSH SCT040 BKN060
     FM250400 20015G22KT 5SM SHRA BR VCTS OVC025CB
      TEMPO 2505/2507 1SM -TSRA BR BKN015CB
     FM250800 25015G22KT 5SM -RA BR OVC020
     FM251200 01010KT P6SM OVC050
     FM251600 05005KT P6SM SCT050=

USA.gov is the U.S. government's official web portal to all federal, state and local government web resources and services.